Time;durP1;ratioP1;P1;durP2;ratioP2;P2;SDS_P1;SDS_P2;PMS_P1;PMS_P2;Temp;Humidity;BMP_temperature;BMP_pressure;BME280_temperature;BME280_humidity;BME280_pressure;Samples;Min_cycle;Max_cycle;Signal;HPM_P1;HPM_P2
2021/12/01 00:00:35;;;;;;;0.68;0.28;;;;;;;16.98;62.06;98860.63;3069179;28;20714;-51
2021/12/01 00:02:07;;;;;;;0.90;0.63;;;;;;;16.97;61.97;98858.97;3071853;28;20047;-51
2021/12/01 00:03:41;;;;;;;0.50;0.40;;;;;;;16.95;61.97;98863.69;3070418;28;20051;-53
2021/12/01 00:05:12;;;;;;;1.00;0.50;;;;;;;16.92;62.09;98853.34;3073408;28;20129;-54
2021/12/01 00:06:43;;;;;;;0.57;0.40;;;;;;;16.92;62.00;98861.38;3069381;28;20054;-51
2021/12/01 00:08:16;;;;;;;0.93;0.60;;;;;;;16.90;61.97;98855.38;3066482;28;20050;-51
2021/12/01 00:09:47;;;;;;;0.35;0.32;;;;;;;16.89;62.12;98851.03;3070094;28;20608;-50
2021/12/01 00:11:20;;;;;;;1.10;0.40;;;;;;;16.88;62.10;98849.34;3076007;28;20113;-51
2021/12/01 00:12:53;;;;;;;2.47;0.80;;;;;;;16.86;62.09;98852.25;3075121;28;20898;-52
2021/12/01 00:14:25;;;;;;;0.60;0.60;;;;;;;16.87;62.07;98850.38;3071831;28;20050;-49
2021/12/01 00:15:56;;;;;;;0.38;0.38;;;;;;;16.84;62.17;98848.91;3072927;28;20054;-50
2021/12/01 00:17:28;;;;;;;;;;;;;;;16.81;62.16;98849.28;3069444;28;20055;-52
2021/12/01 00:19:00;;;;;;;0.60;0.30;;;;;;;16.80;62.10;98844.97;3072101;28;19929;-52
2021/12/01 00:20:31;;;;;;;;;;;;;;;16.77;62.16;98842.66;3072972;28;20046;-51
2021/12/01 00:22:03;;;;;;;0.90;0.40;;;;;;;16.77;62.12;98853.38;3072950;28;19922;-53
2021/12/01 00:23:35;;;;;;;0.30;0.22;;;;;;;16.76;62.18;98854.34;3072238;28;20082;-53
2021/12/01 00:25:10;;;;;;;0.20;0.15;;;;;;;16.74;62.20;98851.88;3076420;28;20062;-53
2021/12/01 00:26:43;;;;;;;2.35;0.60;;;;;;;16.73;62.34;98855.53;3069035;28;20043;-53
2021/12/01 00:28:15;;;;;;;0.35;0.30;;;;;;;16.72;62.25;98850.38;3066605;28;20046;-50
2021/12/01 00:29:48;;;;;;;0.40;0.40;;;;;;;16.70;62.28;98845.19;3071639;28;20646;-51
2021/12/01 00:31:20;;;;;;;0.70;0.52;;;;;;;16.69;62.17;98845.41;3073616;28;20461;-50
2021/12/01 00:32:54;;;;;;;0.38;0.38;;;;;;;16.67;62.29;98842.06;3070432;28;20592;-52
2021/12/01 00:34:26;;;;;;;0.68;0.40;;;;;;;16.66;62.33;98840.38;3068923;28;20058;-51
2021/12/01 00:35:58;;;;;;;0.68;0.40;;;;;;;16.64;62.29;98845.13;3074467;28;20047;-51
2021/12/01 00:37:30;;;;;;;1.17;0.82;;;;;;;16.62;62.37;98845.28;3069817;28;20643;-53
2021/12/01 00:39:02;;;;;;;0.40;0.40;;;;;;;16.62;62.43;98847.97;3070144;28;20616;-50
2021/12/01 00:40:34;;;;;;;0.30;0.30;;;;;;;16.60;62.40;98846.50;3071975;28;20762;-52
2021/12/01 00:42:08;;;;;;;0.95;0.55;;;;;;;16.59;62.38;98845.66;3073432;28;20051;-52
2021/12/01 00:43:40;;;;;;;0.80;0.50;;;;;;;16.58;62.35;98848.56;3074624;28;20058;-52
2021/12/01 00:45:15;;;;;;;1.65;0.55;;;;;;;16.56;62.35;98848.72;3066571;28;20065;-53
2021/12/01 00:46:55;;;;;;;0.50;0.50;;;;;;;16.56;62.41;98846.03;3073175;28;20116;-50
2021/12/01 00:48:27;;;;;;;0.30;0.30;;;;;;;16.54;62.28;98848.06;3072871;28;21008;-51
2021/12/01 00:49:58;;;;;;;0.20;0.20;;;;;;;16.52;62.40;98842.09;3074606;28;20047;-52
2021/12/01 00:51:30;;;;;;;0.70;0.40;;;;;;;16.50;62.34;98849.47;3068882;28;20058;-50
2021/12/01 00:53:02;;;;;;;;;;;;;;;16.47;62.43;98842.63;3074600;28;20057;-51
2021/12/01 00:54:34;;;;;;;1.13;0.75;;;;;;;16.46;62.56;98840.94;3071094;28;20539;-50
2021/12/01 00:56:06;;;;;;;0.75;0.45;;;;;;;16.46;62.47;98843.63;3072266;28;20046;-54
2021/12/01 00:57:38;;;;;;;2.00;0.50;;;;;;;16.43;62.43;98841.31;3075809;28;20054;-54
2021/12/01 00:59:10;;;;;;;0.43;0.40;;;;;;;16.44;62.59;98848.34;3073104;28;20107;-50
2021/12/01 01:00:43;;;;;;;1.95;0.68;;;;;;;16.43;62.40;98843.16;3071908;28;20108;-49
2021/12/01 01:02:15;;;;;;;0.20;0.20;;;;;;;16.42;62.40;98839.66;3075886;28;20465;-53
2021/12/01 01:03:48;;;;;;;0.80;0.63;;;;;;;16.41;62.48;98831.81;3071795;28;20066;-53
2021/12/01 01:05:21;;;;;;;0.32;0.30;;;;;;;16.38;62.43;98832.19;3070636;28;20613;-51
2021/12/01 01:06:52;;;;;;;0.60;0.50;;;;;;;16.37;62.25;98830.53;3073337;28;20425;-51
2021/12/01 01:08:24;;;;;;;0.85;0.50;;;;;;;16.36;62.53;98835.06;3071364;28;20042;-52
2021/12/01 01:09:58;;;;;;;0.95;0.45;;;;;;;16.33;62.60;98829.25;3073335;28;20053;-55
2021/12/01 01:17:00;;;;;;;0.30;0.30;;;;;;;16.27;62.58;98828.97;3072633;28;20510;-53
2021/12/01 01:18:34;;;;;;;0.77;0.75;;;;;;;16.27;62.63;98831.63;3070745;28;20050;-52
2021/12/01 01:20:11;;;;;;;0.88;0.35;;;;;;;16.25;62.54;98822.97;3069118;28;20523;-53
2021/12/01 01:21:47;;;;;;;0.82;0.65;;;;;;;16.23;62.65;98827.66;3073891;28;20078;-53
2021/12/01 01:23:19;;;;;;;1.02;0.70;;;;;;;16.22;62.65;98822.50;3072376;28;20604;-51
2021/12/01 01:24:51;;;;;;;1.13;0.40;;;;;;;16.20;62.59;98820.00;3070700;28;20403;-48
2021/12/01 01:26:24;;;;;;;0.70;0.40;;;;;;;16.19;62.66;98828.22;3073126;28;20117;-51
2021/12/01 01:27:56;;;;;;;1.08;0.70;;;;;;;16.19;62.73;98823.69;3072440;28;20051;-50
2021/12/01 01:29:34;;;;;;;1.20;0.40;;;;;;;16.19;62.51;98815.66;3067860;28;20129;-53
2021/12/01 01:31:05;;;;;;;0.63;0.60;;;;;;;16.19;62.64;98823.69;3072486;28;20059;-50
2021/12/01 01:32:36;;;;;;;0.82;0.60;;;;;;;16.16;62.71;98817.84;3072407;28;20079;-51
2021/12/01 01:34:08;;;;;;;;;;;;;;;16.13;62.64;98819.09;3071675;28;20046;-50
2021/12/01 01:35:40;;;;;;;0.43;0.40;;;;;;;16.12;62.77;98816.56;3068837;28;19922;-50
2021/12/01 01:37:12;;;;;;;1.00;0.50;;;;;;;16.12;62.76;98816.56;3070844;28;20094;-53
2021/12/01 01:38:44;;;;;;;;;;;;;;;16.10;62.74;98814.06;3071297;28;20451;-54
2021/12/01 01:40:16;;;;;;;0.95;0.57;;;;;;;16.08;62.70;98811.59;3069312;28;19933;-51
2021/12/01 01:41:48;;;;;;;0.28;0.28;;;;;;;16.07;63.03;98809.94;3070096;28;20054;-52
2021/12/01 01:43:19;;;;;;;0.38;0.35;;;;;;;16.06;62.79;98810.13;3070686;28;20043;-50
2021/12/01 01:44:53;;;;;;;0.40;0.40;;;;;;;16.03;62.91;98811.31;3069469;28;20055;-50
2021/12/01 01:46:24;;;;;;;0.55;0.40;;;;;;;16.05;62.84;98808.47;3073269;28;20042;-51
2021/12/01 01:48:00;;;;;;;0.50;0.40;;;;;;;16.03;62.74;98799.78;3071043;28;20058;-50
2021/12/01 01:49:43;;;;;;;1.35;0.52;;;;;;;16.02;62.78;98801.63;3071270;28;20253;-53
2021/12/01 01:51:16;;;;;;;0.85;0.30;;;;;;;16.00;62.72;98797.47;3070520;28;20047;-54
2021/12/01 01:52:47;;;;;;;1.15;1.05;;;;;;;15.97;62.88;98797.84;3071643;28;20405;-49
2021/12/01 01:54:19;;;;;;;1.50;0.45;;;;;;;16.00;62.71;98800.16;3074637;28;20055;-50
2021/12/01 01:55:53;;;;;;;1.17;0.57;;;;;;;15.96;62.82;98799.66;3065210;28;20051;-51
2021/12/01 01:57:24;;;;;;;0.30;0.30;;;;;;;15.95;63.02;98795.34;3071951;28;20554;-53
2021/12/01 01:58:57;;;;;;;0.57;0.40;;;;;;;15.95;62.95;98786.47;3066787;28;23191;-50
2021/12/01 02:00:29;;;;;;;0.65;0.35;;;;;;;15.96;62.88;98790.81;3069520;28;20089;-52
2021/12/01 02:02:03;;;;;;;0.40;0.30;;;;;;;15.95;62.83;98783.81;3072362;28;20058;-51
2021/12/01 02:03:37;;;;;;;0.68;0.40;;;;;;;15.91;62.96;98785.16;3069978;28;20038;-52
2021/12/01 02:05:09;;;;;;;0.52;0.32;;;;;;;15.89;62.86;98784.53;3075571;28;20050;-52
2021/12/01 02:06:41;;;;;;;0.40;0.30;;;;;;;15.86;62.81;98783.06;3069848;28;20058;-51
2021/12/01 02:08:18;;;;;;;0.70;0.47;;;;;;;15.86;62.87;98785.72;3070528;28;20105;-50
2021/12/01 02:09:50;;;;;;;0.30;0.30;;;;;;;15.83;63.01;98778.91;3072539;28;20055;-50
2021/12/01 02:11:23;;;;;;;0.73;0.50;;;;;;;15.82;63.12;98784.41;3074239;28;20517;-54
2021/12/01 02:12:55;;;;;;;0.65;0.43;;;;;;;15.79;63.06;98776.75;3072387;28;20599;-50
2021/12/01 02:14:29;;;;;;;0.65;0.43;;;;;;;15.78;63.15;98773.25;3073568;28;20046;-50
2021/12/01 02:16:02;;;;;;;0.40;0.40;;;;;;;15.78;63.04;98772.44;3072606;28;20055;-50
2021/12/01 02:17:33;;;;;;;0.85;0.38;;;;;;;15.77;63.07;98768.94;3068944;28;20049;-50
2021/12/01 02:19:06;;;;;;;0.40;0.22;;;;;;;15.77;62.98;98765.44;3076132;28;20088;-51
2021/12/01 02:20:38;;;;;;;0.73;0.43;;;;;;;15.77;63.12;98771.63;3071297;28;20421;-50
2021/12/01 02:22:10;;;;;;;1.10;0.88;;;;;;;15.76;63.02;98759.22;3075402;28;20533;-52
2021/12/01 02:23:44;;;;;;;1.05;0.38;;;;;;;15.78;63.08;98762.56;3073240;28;20049;-50
2021/12/01 02:25:16;;;;;;;0.90;0.50;;;;;;;15.79;63.04;98761.53;3074231;28;20059;-51
2021/12/01 02:26:51;;;;;;;0.30;0.30;;;;;;;15.80;62.91;98755.19;3073031;28;21010;-50
2021/12/01 02:28:23;;;;;;;0.90;0.40;;;;;;;15.81;62.92;98756.84;3071707;28;20055;-51
2021/12/01 02:29:55;;;;;;;2.22;0.47;;;;;;;15.81;62.84;98751.50;3072149;28;20118;-49
2021/12/01 02:31:29;;;;;;;0.50;0.50;;;;;;;15.83;62.79;98754.84;3070363;28;20532;-50
2021/12/01 02:33:00;;;;;;;0.60;0.40;;;;;;;15.83;63.00;98754.84;3068347;28;20055;-52
2021/12/01 02:34:33;;;;;;;;;;;;;;;15.82;62.84;98755.00;3069206;28;20043;-52
2021/12/01 02:36:09;;;;;;;0.70;0.70;;;;;;;15.82;62.81;98752.31;3070551;28;19929;-52
2021/12/01 02:37:41;;;;;;;0.20;0.20;;;;;;;15.82;63.01;98746.97;3071484;28;20058;-51
2021/12/01 02:39:15;;;;;;;0.60;0.40;;;;;;;15.83;62.79;98752.16;3072324;28;20454;-50
2021/12/01 02:40:48;;;;;;;0.52;0.40;;;;;;;15.82;62.99;98752.31;3073381;28;20127;-52
2021/12/01 02:42:21;;;;;;;1.23;0.93;;;;;;;15.80;62.74;98752.53;3073435;28;20043;-53
2021/12/01 02:43:52;;;;;;;0.52;0.40;;;;;;;15.80;62.81;98749.84;3070736;28;20055;-52
2021/12/01 02:45:24;;;;;;;0.60;0.40;;;;;;;15.79;63.00;98747.34;3073932;28;20524;-50
2021/12/01 02:46:56;;;;;;;;;;;;;;;15.79;62.94;98750.03;3076749;28;20059;-51
2021/12/01 02:48:27;;;;;;;;;;;;;;;15.78;62.92;98745.69;3071971;28;19934;-50
2021/12/01 02:49:59;;;;;;;0.40;0.40;;;;;;;15.77;62.88;98742.19;3069903;28;19922;-51
2021/12/01 02:51:36;;;;;;;0.50;0.43;;;;;;;15.78;62.79;98737.66;3065894;28;20106;-52
2021/12/01 02:53:06;;;;;;;0.30;0.30;;;;;;;15.76;62.87;98737.84;3071482;28;20059;-49
2021/12/01 02:54:39;;;;;;;0.40;0.40;;;;;;;15.77;63.04;98736.84;3070835;28;20078;-51
2021/12/01 02:56:11;;;;;;;0.80;0.30;;;;;;;15.77;62.81;98734.19;3072845;28;20744;-51
2021/12/01 02:57:47;;;;;;;0.50;0.50;;;;;;;15.75;62.98;98733.50;3073530;28;21533;-50
2021/12/01 02:59:19;;;;;;;0.40;0.20;;;;;;;15.75;62.81;98728.16;3074094;28;20552;-50
2021/12/01 03:00:53;;;;;;;0.60;0.50;;;;;;;15.74;62.89;98729.19;3071248;28;20133;-53
2021/12/01 03:02:24;;;;;;;0.60;0.43;;;;;;;15.73;63.04;98727.50;3069700;28;20043;-52
2021/12/01 03:03:57;;;;;;;0.55;0.55;;;;;;;15.73;63.05;98716.81;3070426;28;20058;-51
2021/12/01 03:05:29;;;;;;;0.47;0.30;;;;;;;15.71;63.02;98716.19;3070983;28;21074;-50
2021/12/01 03:07:04;;;;;;;0.50;0.50;;;;;;;15.72;63.28;98723.19;3068557;28;20815;-51
2021/12/01 03:08:36;;;;;;;1.27;0.60;;;;;;;15.71;63.08;98721.53;3070905;28;20046;-50
2021/12/01 03:10:09;;;;;;;0.30;0.30;;;;;;;15.70;62.95;98719.84;3071587;28;20051;-50
2021/12/01 03:11:41;;;;;;;0.82;0.30;;;;;;;15.71;62.92;98720.69;3070571;28;20050;-50
2021/12/01 03:13:13;;;;;;;0.52;0.30;;;;;;;15.70;63.07;98724.38;3066462;28;20046;-50
2021/12/01 03:14:45;;;;;;;0.20;0.20;;;;;;;15.69;62.89;98714.72;3069770;28;20050;-50
2021/12/01 03:16:17;;;;;;;0.63;0.30;;;;;;;15.67;63.15;98706.81;3072177;28;20619;-51
2021/12/01 03:17:49;;;;;;;0.52;0.43;;;;;;;15.68;63.15;98713.00;3069866;28;20058;-51
2021/12/01 03:19:20;;;;;;;;;;;;;;;15.67;62.97;98709.50;3073931;28;20046;-51
2021/12/01 03:20:54;;;;;;;;;;;;;;;15.65;63.05;98714.19;3075352;28;19926;-49
2021/12/01 03:22:27;;;;;;;;;;;;;;;15.64;63.17;98715.22;3070375;28;20368;-49
2021/12/01 03:23:59;;;;;;;;;;;;;;;15.63;63.10;98713.56;3073165;28;20918;-51
2021/12/01 03:25:31;;;;;;;;;;;;;;;15.62;63.17;98719.91;3070326;28;19926;-49
2021/12/01 03:27:02;;;;;;;;;;;;;;;15.63;63.05;98719.75;3069326;28;19922;-53
2021/12/01 03:28:34;;;;;;;;;;;;;;;15.60;63.16;98706.75;3068650;28;19949;-54
2021/12/01 03:30:07;;;;;;;;;;;;;;;15.60;63.16;98705.88;3067079;28;19929;-51
2021/12/01 03:31:38;;;;;;;;;;;;;;;15.59;63.16;98706.91;3069727;28;20408;-51
2021/12/01 03:33:11;;;;;;;;;;;;;;;15.58;63.27;98702.59;3070402;28;19947;-50
2021/12/01 03:34:43;;;;;;;;;;;;;;;15.58;63.23;98707.94;3070486;28;19937;-49
2021/12/01 03:36:15;;;;;;;;;;;;;;;15.57;63.21;98700.91;3072038;28;22113;-51
2021/12/01 03:37:47;;;;;;;;;;;;;;;15.55;63.23;98705.63;3070970;28;20608;-50
2021/12/01 03:39:18;;;;;;;;;;;;;;;15.56;63.16;98705.44;3071738;28;20563;-51
2021/12/01 03:40:49;;;;;;;;;;;;;;;15.56;63.14;98709.94;3070079;28;19926;-49
2021/12/01 03:42:20;;;;;;;;;;;;;;;15.55;63.22;98703.78;3070248;28;19928;-50
2021/12/01 03:43:52;;;;;;;;;;;;;;;15.54;63.20;98702.09;3071052;28;20546;-50
2021/12/01 03:45:23;;;;;;;;;;;;;;;15.53;63.25;98699.63;3064076;28;19930;-50
2021/12/01 03:46:55;;;;;;;;;;;;;;;15.53;63.21;98696.94;3073395;28;19923;-51
2021/12/01 03:48:27;;;;;;;;;;;;;;;15.52;63.18;98697.97;3069979;28;19926;-51
2021/12/01 03:49:58;;;;;;;;;;;;;;;15.53;63.05;98699.63;3075471;28;19926;-51
2021/12/01 03:51:30;;;;;;;;;;;;;;;15.51;63.22;98696.28;3070536;28;20400;-52
2021/12/01 03:53:03;;;;;;;;;;;;;;;15.48;63.17;98697.47;3068316;28;20489;-52
2021/12/01 03:54:34;;;;;;;;;;;;;;;15.50;63.16;98699.97;3069354;28;19922;-52
2021/12/01 03:56:06;;;;;;;;;;;;;;;15.49;63.10;98699.16;3071703;28;19948;-50
2021/12/01 03:57:38;;;;;;;;;;;;;;;15.48;63.10;98702.81;3071496;28;19990;-51
2021/12/01 03:59:09;;;;;;;;;;;;;;;15.47;63.21;98689.66;3073002;28;19926;-51
2021/12/01 04:00:40;;;;;;;;;;;;;;;15.48;63.15;98691.31;3069672;28;20463;-51
2021/12/01 04:02:11;;;;;;;;;;;;;;;15.45;63.09;98691.69;3072159;28;19926;-52
2021/12/01 04:03:43;;;;;;;;;;;;;;;15.44;63.10;98692.69;3066213;28;19930;-52
2021/12/01 04:05:15;;;;;;;;;;;;;;;15.42;63.42;98693.69;3074523;28;19922;-50
2021/12/01 04:06:47;;;;;;;;;;;;;;;15.40;63.25;98690.38;3071834;28;20399;-50
2021/12/01 04:08:20;;;;;;;;;;;;;;;15.40;63.36;98693.03;3072266;28;19926;-53
2021/12/01 04:09:52;;;;;;;;;;;;;;;15.42;63.21;98692.88;3072171;28;20281;-49
2021/12/01 04:11:23;;;;;;;;;;;;;;;15.40;63.32;98694.88;3072147;28;20009;-51
2021/12/01 04:12:56;;;;;;;;;;;;;;;15.40;63.25;98694.88;3067851;28;19922;-51
2021/12/01 04:14:28;;;;;;;;;;;;;;;15.38;63.05;98683.56;3070193;28;19930;-49
2021/12/01 04:15:59;;;;;;;;;;;;;;;15.37;63.34;98688.06;3071110;28;20017;-50
2021/12/01 04:17:31;;;;;;;;;;;;;;;15.36;63.37;98690.94;3069086;28;19949;-52
2021/12/01 04:19:02;;;;;;;;;;;;;;;15.34;63.31;98683.06;3070947;28;19922;-51
2021/12/01 04:20:34;;;;;;;;;;;;;;;15.34;63.38;98677.72;3072510;28;19962;-50
2021/12/01 04:22:06;;;;;;;;;;;;;;;15.33;63.23;98680.59;3070632;28;19930;-52
2021/12/01 04:23:38;;;;;;;;;;;;;;;15.32;63.32;98674.44;3072017;28;20412;-51
2021/12/01 04:25:10;;;;;;;;;;;;;;;15.30;63.36;98673.78;3073135;28;20008;-52
2021/12/01 04:26:42;;;;;;;;;;;;;;;15.30;63.36;98668.44;3071647;28;19953;-51
2021/12/01 04:28:14;;;;;;;;;;;;;;;15.32;63.39;98665.56;3071936;28;19930;-54
2021/12/01 04:29:45;;;;;;;;;;;;;;;15.31;63.33;98664.72;3066245;28;19930;-49
2021/12/01 04:31:17;;;;;;;;;;;;;;;15.32;63.22;98658.41;3069731;28;20324;-52
2021/12/01 04:32:48;;;;;;;;;;;;;;;15.34;63.22;98663.53;3071951;28;19922;-51
2021/12/01 04:34:21;;;;;;;;;;;;;;;15.35;63.15;98654.50;3072169;28;19925;-51
2021/12/01 04:35:53;;;;;;;;;;;;;;;15.37;63.23;98655.16;3070689;28;19929;-51
2021/12/01 04:37:25;;;;;;;;;;;;;;;15.38;63.15;98655.00;3072007;28;19922;-52
2021/12/01 04:38:58;;;;;;;;;;;;;;;15.39;63.19;98651.28;3071684;28;19926;-51
2021/12/01 04:40:30;;;;;;;;;;;;;;;15.40;63.12;98650.28;3069785;28;19933;-51
2021/12/01 04:42:05;;;;;;;;;;;;;;;15.39;63.11;98643.28;3072791;28;20468;-51
2021/12/01 04:43:37;;;;;;;;;;;;;;;15.39;63.14;98651.28;3071858;28;19923;-51
2021/12/01 04:45:14;;;;;;;;;;;;;;;15.40;63.12;98652.13;3069314;28;19985;-49
2021/12/01 04:46:46;;;;;;;;;;;;;;;15.39;63.12;98651.28;3064521;28;19957;-51
2021/12/01 04:48:18;;;;;;;;;;;;;;;15.39;63.15;98655.81;3066335;28;19927;-52
2021/12/01 04:49:49;;;;;;;;;;;;;;;15.39;63.15;98659.31;3071524;28;19922;-50
2021/12/01 04:51:21;;;;;;;;;;;;;;;15.39;63.13;98658.50;3073890;28;19930;-50
2021/12/01 04:52:54;;;;;;;;;;;;;;;15.39;63.12;98656.63;3068525;28;19923;-52
2021/12/01 04:54:27;;;;;;;;;;;;;;;15.38;63.28;98654.16;3072263;28;19926;-50
2021/12/01 04:55:58;;;;;;;;;;;;;;;15.38;63.00;98663.00;3074633;28;19946;-53
2021/12/01 04:57:30;;;;;;;;;;;;;;;15.37;63.19;98658.66;3072255;28;19922;-51
2021/12/01 04:59:01;;;;;;;;;;;;;;;15.37;63.09;98658.66;3074962;28;20554;-49
2021/12/01 05:00:35;;;;;;;;;;;;;;;15.38;63.10;98664.84;3073621;28;19929;-52
2021/12/01 05:02:07;;;;;;;;;;;;;;;15.36;63.08;98659.69;3073703;28;19934;-49
2021/12/01 05:03:38;;;;;;;;;;;;;;;15.37;63.16;98657.84;3067816;28;19965;-52
2021/12/01 05:05:10;;;;;;;;;;;;;;;15.37;63.16;98652.50;3072036;28;19926;-49
2021/12/01 05:06:41;;;;;;;;;;;;;;;15.37;63.13;98647.97;3070208;28;20004;-53
2021/12/01 05:08:13;;;;;;;;;;;;;;;15.39;63.17;98645.13;3072120;28;20262;-52
2021/12/01 05:09:46;;;;;;;;;;;;;;;15.42;63.04;98636.75;3073170;28;19961;-49
2021/12/01 05:11:17;;;;;;;;;;;;;;;15.47;63.17;98633.53;3071064;28;19926;-52
2021/12/01 05:12:49;;;;;;;;;;;;;;;15.53;63.09;98628.28;3071975;28;19922;-51
2021/12/01 05:14:21;;;;;;;;;;;;;;;15.60;63.06;98628.34;3072978;28;19933;-48
2021/12/01 05:15:53;;;;;;;;;;;;;;;15.68;62.80;98617.59;3071582;28;20017;-51
2021/12/01 05:17:24;;;;;;;;;;;;;;;15.75;62.79;98623.88;3071963;28;20021;-50
2021/12/01 05:18:56;;;;;;;;;;;;;;;15.83;62.63;98620.28;3072732;28;19926;-50
2021/12/01 05:20:27;;;;;;;;;;;;;;;15.92;62.52;98623.69;3071277;28;19922;-51
2021/12/01 05:21:59;;;;;;;;;;;;;;;15.95;62.52;98605.41;3069901;28;19929;-49
2021/12/01 05:23:30;;;;;;;;;;;;;;;16.01;62.40;98607.31;3070790;28;20343;-53
2021/12/01 05:25:03;;;;;;;;;;;;;;;16.08;62.27;98610.09;3074308;28;19929;-50
2021/12/01 05:26:35;;;;;;;;;;;;;;;16.13;62.18;98606.84;3074718;28;19922;-49
2021/12/01 05:28:07;;;;;;;;;;;;;;;16.19;62.07;98612.28;3067516;28;19922;-52
2021/12/01 05:29:38;;;;;;;;;;;;;;;16.26;62.12;98617.72;3074628;28;19933;-51
2021/12/01 05:31:10;;;;;;;;;;;;;;;16.29;61.93;98611.97;3072415;28;19922;-50
2021/12/01 05:32:43;;;;;;;;;;;;;;;16.35;61.99;98619.25;3074245;28;20903;-49
2021/12/01 05:34:14;;;;;;;;;;;;;;;16.39;61.90;98615.19;3072228;28;19926;-51
2021/12/01 05:35:46;;;;;;;;;;;;;;;16.44;61.88;98622.66;3073207;28;19937;-50
2021/12/01 05:37:16;;;;;;;;;;;;;;;16.46;61.92;98625.94;3073994;28;19960;-52
2021/12/01 05:38:48;;;;;;;;;;;;;;;16.50;61.80;98629.91;3071966;28;19926;-51
2021/12/01 05:40:21;;;;;;;;;;;;;;;16.53;61.69;98632.22;3074309;28;19953;-51
2021/12/01 05:41:53;;;;;;;;;;;;;;;16.54;61.76;98631.19;3073863;28;19933;-48
2021/12/01 05:43:24;;;;;;;;;;;;;;;16.57;61.73;98624.63;3072163;28;19955;-50
2021/12/01 05:44:56;;;;;;;;;;;;;;;16.61;61.67;98628.59;3065770;28;19930;-49
2021/12/01 05:46:28;;;;;;;;;;;;;;;16.64;61.81;98623.69;3071121;28;19930;-51
2021/12/01 05:47:59;;;;;;;;;;;;;;;16.67;61.64;98623.28;3074051;28;20085;-52
2021/12/01 05:49:31;;;;;;;;;;;;;;;16.71;61.71;98624.56;3072238;28;19922;-49
2021/12/01 05:51:03;;;;;;;;;;;;;;;16.74;61.48;98632.22;3071803;28;19926;-50
2021/12/01 05:52:34;;;;;;;;;;;;;;;16.80;61.53;98621.78;3072509;28;19933;-52
2021/12/01 05:54:07;;;;;;;;;;;;;;;16.81;61.33;98623.47;3072915;28;19922;-51
2021/12/01 05:55:40;;;;;;;;;;;;;;;16.85;61.47;98622.03;3069987;28;19926;-51
2021/12/01 05:57:12;;;;;;;;;;;;;;;16.88;61.42;98614.47;3073332;28;19923;-56
2021/12/01 05:58:43;;;;;;;;;;;;;;;16.91;61.47;98621.25;3072931;28;21844;-54
2021/12/01 06:00:16;;;;;;;;;;;;;;;16.93;61.31;98620.03;3070937;28;20432;-55
2021/12/01 06:01:47;;;;;;;;;;;;;;;16.97;61.28;98631.22;3067028;28;19930;-55
2021/12/01 06:03:19;;;;;;;;;;;;;;;17.00;61.27;98622.81;3064736;28;19980;-57
2021/12/01 06:04:50;;;;;;;;;;;;;;;17.04;61.30;98629.41;3068431;28;20976;-51
2021/12/01 06:06:22;;;;;;;;;;;;;;;17.06;61.27;98622.03;3072136;28;20577;-56
2021/12/01 06:07:53;;;;;;;;;;;;;;;17.09;61.31;98620.81;3067692;28;19923;-53
2021/12/01 06:09:25;;;;;;;;;;;;;;;17.10;61.18;98615.25;3071261;28;19927;-58
2021/12/01 06:10:58;;;;;;;;;;;;;;;17.12;61.20;98615.06;3069895;28;20529;-53
2021/12/01 06:12:29;;;;;;;;;;;;;;;17.14;61.19;98619.22;3068133;28;19936;-57
2021/12/01 06:14:01;;;;;;;;;;;;;;;17.16;61.17;98622.53;3072304;28;19926;-56
2021/12/01 06:15:33;;;;;;;;;;;;;;;17.16;61.13;98625.22;3071332;28;19922;-53
2021/12/01 06:17:04;;;;;;;;;;;;;;;17.18;61.21;98623.13;3075426;28;19932;-52
2021/12/01 06:18:36;;;;;;;;;;;;;;;17.19;61.01;98627.50;3073468;28;19923;-56
2021/12/01 06:20:09;;;;;;;;;;;;;;;17.20;61.16;98622.97;3067757;28;20669;-57
2021/12/01 06:21:40;;;;;;;;;;;;;;;17.20;61.04;98625.63;3068325;28;19937;-55
2021/12/01 06:23:13;;;;;;;;;;;;;;;17.22;61.06;98631.63;3067555;28;19922;-56
2021/12/01 06:24:44;;;;;;;;;;;;;;;17.22;61.14;98626.28;3065879;28;19980;-56
2021/12/01 06:26:17;;;;;;;;;;;;;;;17.23;61.00;98630.59;3068589;28;19927;-54
2021/12/01 06:27:48;;;;;;;;;;;;;;;17.23;61.24;98627.94;3070782;28;20053;-53
2021/12/01 06:29:20;;;;;;;;;;;;;;;17.24;61.09;98634.09;3071060;28;19933;-57
2021/12/01 06:30:52;;;;;;;;;;;;;;;17.23;61.12;98622.56;3060465;28;20558;-52
2021/12/01 06:32:23;;;;;;;;;;;;;;;17.22;61.13;98622.75;3071584;28;19932;-56
2021/12/01 06:33:55;;;;;;;;;;;;;;;17.23;61.15;98621.75;3070512;28;20392;-56
2021/12/01 06:35:26;;;;;;;;;;;;;;;17.23;61.14;98616.38;3069607;28;19926;-53
2021/12/01 06:36:58;;;;;;;;;;;;;;;17.22;61.21;98620.06;3072207;28;19929;-51
2021/12/01 06:38:29;;;;;;;;;;;;;;;17.22;61.16;98628.09;3070872;28;19926;-49
2021/12/01 06:40:01;;;;;;;;;;;;;;;17.23;61.23;98624.41;3069248;28;19922;-53
2021/12/01 06:41:34;;;;;;;;;;;;;;;17.24;61.25;98626.06;3067756;28;19926;-54
2021/12/01 06:43:06;;;;;;;;;;;;;;;17.24;61.19;98628.75;3067225;28;19930;-54
2021/12/01 06:44:37;;;;;;;;;;;;;;;17.25;61.07;98619.72;3067724;28;20026;-51
2021/12/01 06:46:09;;;;;;;;;;;;;;;17.25;61.23;98620.53;3068972;28;20381;-54
2021/12/01 06:47:41;;;;;;;;;;;;;;;17.27;61.18;98621.13;3068191;28;19936;-50
2021/12/01 06:49:12;;;;;;;;;;;;;;;17.28;61.04;98619.31;3069349;28;19980;-54
2021/12/01 06:50:44;;;;;;;;;;;;;;;17.31;61.08;98622.41;3066045;28;19930;-56
2021/12/01 06:52:15;;;;;;;;;;;;;;;17.31;61.09;98619.75;3067797;28;19923;-57
2021/12/01 06:53:46;;;;;;;;;;;;;;;17.32;61.11;98616.03;3068325;28;19938;-52
2021/12/01 06:55:20;;;;;;;;;;;;;;;17.34;61.20;98619.34;3069242;28;20317;-53
2021/12/01 06:56:53;;;;;;;;;;;;;;;17.36;61.24;98616.47;3068864;28;19927;-50
2021/12/01 06:58:24;;;;;;;;;;;;;;;17.37;61.00;98620.81;3072574;28;19993;-58
2021/12/01 06:59:56;;;;;;;;;;;;;;;17.37;61.04;98618.13;3071680;28;19922;-52
2021/12/01 07:01:28;;;;;;;;;;;;;;;17.38;61.06;98623.31;3069235;28;19930;-58
2021/12/01 07:02:59;;;;;;;;;;;;;;;17.40;61.12;98623.91;3071141;28;19922;-51
2021/12/01 07:04:31;;;;;;;;;;;;;;;17.41;60.84;98624.75;3067210;28;19930;-52
2021/12/01 07:06:03;;;;;;;;;;;;;;;17.40;60.94;98618.56;3069791;28;21908;-58
2021/12/01 07:07:34;;;;;;;;;;;;;;;17.40;60.87;98613.19;3068858;28;20724;-54
2021/12/01 07:09:06;;;;;;;;;;;;;;;17.40;60.98;98617.72;3070813;28;19926;-56
2021/12/01 07:10:37;;;;;;;;;;;;;;;17.40;60.98;98609.69;3062555;28;19930;-54
2021/12/01 07:12:10;;;;;;;;;;;;;;;17.39;61.11;98621.44;3058700;28;19976;-52
2021/12/01 07:13:42;;;;;;;;;;;;;;;17.38;61.19;98614.41;3069862;28;19949;-51
2021/12/01 07:15:14;;;;;;;;;;;;;;;17.39;61.16;98613.41;3067834;28;19930;-52
2021/12/01 07:16:45;;;;;;;;;;;;;;;17.39;61.15;98616.09;3072241;28;21372;-51
2021/12/01 07:18:17;;;;;;;;;;;;;;;17.38;61.05;98615.25;3072160;28;19926;-51
2021/12/01 07:19:49;;;;;;;;;;;;;;;17.39;61.08;98616.09;3067554;28;19985;-50
2021/12/01 07:21:20;;;;;;;;;;;;;;;17.38;60.96;98614.41;3070831;28;20009;-51
2021/12/01 07:22:52;;;;;;;;;;;;;;;17.39;61.14;98624.13;3063781;28;19928;-51
2021/12/01 07:24:23;;;;;;;;;;;;;;;17.39;61.15;98629.50;3069728;28;19926;-52
2021/12/01 07:25:55;;;;;;;;;;;;;;;17.37;61.01;98624.31;3066346;28;19934;-51
2021/12/01 07:27:28;;;;;;;;;;;;;;;17.39;61.11;98622.28;3067828;28;20701;-52
2021/12/01 07:29:00;;;;;;;;;;;;;;;17.39;61.11;98622.28;3068746;28;20585;-52
2021/12/01 07:30:32;;;;;;;;;;;;;;;17.41;61.07;98614.00;3068801;28;20289;-51
2021/12/01 07:32:04;;;;;;;;;;;;;;;17.42;61.11;98616.50;3067354;28;19936;-49
2021/12/01 07:33:36;;;;;;;;;;;;;;;17.43;61.03;98623.53;3067685;28;19965;-53
2021/12/01 07:35:08;;;;;;;;;;;;;;;17.44;61.00;98619.00;3069775;28;20486;-53
2021/12/01 07:36:39;;;;;;;;;;;;;;;17.46;60.99;98621.47;3069192;28;19930;-52
2021/12/01 07:38:12;;;;;;;;;;;;;;;17.47;60.96;98618.63;3066448;28;19957;-49
2021/12/01 07:39:44;;;;;;;;;;;;;;;17.47;60.97;98621.31;3065936;28;19972;-51
2021/12/01 07:41:15;;;;;;;;;;;;;;;17.47;60.97;98618.63;3071169;28;19930;-52
2021/12/01 07:42:48;;;;;;;;;;;;;;;17.49;60.97;98626.44;3069099;28;19922;-51
2021/12/01 07:44:20;;;;;;;;;;;;;;;17.48;60.98;98625.63;3065392;28;20649;-53
2021/12/01 07:45:51;;;;;;;;;;;;;;;17.46;60.83;98610.75;3067916;28;19930;-52